sensor_id;sensor_type;location;lat;lon;timestamp;P1;durP1;ratioP1;P2;durP2;ratioP2
80623;SDS011;70269;44.768;9.600;2023-09-30T00:00:58;10.77;;;4.88;;
80623;SDS011;70269;44.768;9.600;2023-09-30T00:03:24;8.93;;;5.50;;
80623;SDS011;70269;44.768;9.600;2023-09-30T00:05:49;8.63;;;5.25;;
80623;SDS011;70269;44.768;9.600;2023-09-30T00:08:15;7.30;;;4.97;;
80623;SDS011;70269;44.768;9.600;2023-09-30T00:10:41;8.70;;;4.75;;
80623;SDS011;70269;44.768;9.600;2023-09-30T00:13:06;8.55;;;4.75;;
80623;SDS011;70269;44.768;9.600;2023-09-30T00:15:32;7.43;;;5.00;;
80623;SDS011;70269;44.768;9.600;2023-09-30T00:17:58;8.60;;;4.97;;
80623;SDS011;70269;44.768;9.600;2023-09-30T00:20:24;7.82;;;5.13;;
80623;SDS011;70269;44.768;9.600;2023-09-30T00:22:49;10.52;;;4.57;;
80623;SDS011;70269;44.768;9.600;2023-09-30T00:25:15;9.40;;;5.47;;
80623;SDS011;70269;44.768;9.600;2023-09-30T00:27:41;8.70;;;4.93;;
80623;SDS011;70269;44.768;9.600;2023-09-30T00:30:06;11.98;;;5.22;;
80623;SDS011;70269;44.768;9.600;2023-09-30T00:32:33;10.38;;;5.63;;
80623;SDS011;70269;44.768;9.600;2023-09-30T00:35:00;12.60;;;5.68;;
80623;SDS011;70269;44.768;9.600;2023-09-30T00:37:27;9.85;;;5.20;;
80623;SDS011;70269;44.768;9.600;2023-09-30T00:39:52;8.77;;;5.07;;
80623;SDS011;70269;44.768;9.600;2023-09-30T00:42:18;10.55;;;5.68;;
80623;SDS011;70269;44.768;9.600;2023-09-30T00:44:46;11.10;;;5.40;;
80623;SDS011;70269;44.768;9.600;2023-09-30T00:47:12;8.32;;;5.32;;
80623;SDS011;70269;44.768;9.600;2023-09-30T00:49:40;9.50;;;5.00;;
80623;SDS011;70269;44.768;9.600;2023-09-30T00:52:08;7.88;;;5.05;;
80623;SDS011;70269;44.768;9.600;2023-09-30T00:54:34;9.13;;;4.70;;
80623;SDS011;70269;44.768;9.600;2023-09-30T00:57:03;9.43;;;5.60;;
80623;SDS011;70269;44.768;9.600;2023-09-30T00:59:30;9.07;;;5.10;;
80623;SDS011;70269;44.768;9.600;2023-09-30T01:01:58;9.48;;;5.40;;
80623;SDS011;70269;44.768;9.600;2023-09-30T01:04:26;8.05;;;5.07;;
80623;SDS011;70269;44.768;9.600;2023-09-30T01:06:52;9.15;;;5.40;;
80623;SDS011;70269;44.768;9.600;2023-09-30T01:09:18;7.90;;;5.30;;
80623;SDS011;70269;44.768;9.600;2023-09-30T01:11:44;11.63;;;5.47;;
80623;SDS011;70269;44.768;9.600;2023-09-30T01:14:26;10.70;;;5.38;;
80623;SDS011;70269;44.768;9.600;2023-09-30T01:16:54;9.82;;;5.40;;
80623;SDS011;70269;44.768;9.600;2023-09-30T01:19:20;9.93;;;5.28;;
80623;SDS011;70269;44.768;9.600;2023-09-30T01:21:47;9.13;;;4.63;;
80623;SDS011;70269;44.768;9.600;2023-09-30T01:24:14;9.00;;;5.68;;
80623;SDS011;70269;44.768;9.600;2023-09-30T01:26:40;7.80;;;5.35;;
80623;SDS011;70269;44.768;9.600;2023-09-30T01:29:07;12.60;;;5.35;;
80623;SDS011;70269;44.768;9.600;2023-09-30T01:31:36;12.00;;;5.50;;
80623;SDS011;70269;44.768;9.600;2023-09-30T01:34:03;10.48;;;5.70;;
80623;SDS011;70269;44.768;9.600;2023-09-30T01:36:29;8.38;;;5.13;;
80623;SDS011;70269;44.768;9.600;2023-09-30T01:38:54;9.02;;;5.07;;
80623;SDS011;70269;44.768;9.600;2023-09-30T01:41:20;9.48;;;5.63;;
80623;SDS011;70269;44.768;9.600;2023-09-30T01:43:46;9.25;;;5.72;;
80623;SDS011;70269;44.768;9.600;2023-09-30T01:46:12;10.00;;;5.07;;
80623;SDS011;70269;44.768;9.600;2023-09-30T01:48:38;8.27;;;4.78;;
80623;SDS011;70269;44.768;9.600;2023-09-30T01:51:04;9.07;;;5.80;;
80623;SDS011;70269;44.768;9.600;2023-09-30T01:53:29;9.52;;;5.35;;
80623;SDS011;70269;44.768;9.600;2023-09-30T01:55:55;9.73;;;5.25;;
80623;SDS011;70269;44.768;9.600;2023-09-30T01:58:20;11.25;;;5.60;;
80623;SDS011;70269;44.768;9.600;2023-09-30T02:00:46;11.93;;;6.22;;
80623;SDS011;70269;44.768;9.600;2023-09-30T02:03:11;9.45;;;5.13;;
80623;SDS011;70269;44.768;9.600;2023-09-30T02:05:38;10.88;;;5.60;;
80623;SDS011;70269;44.768;9.600;2023-09-30T02:08:04;8.43;;;5.15;;
80623;SDS011;70269;44.768;9.600;2023-09-30T02:10:31;8.90;;;5.97;;
80623;SDS011;70269;44.768;9.600;2023-09-30T02:12:58;10.90;;;5.38;;
80623;SDS011;70269;44.768;9.600;2023-09-30T02:15:24;10.45;;;5.55;;
80623;SDS011;70269;44.768;9.600;2023-09-30T02:17:52;8.90;;;5.40;;
80623;SDS011;70269;44.768;9.600;2023-09-30T02:20:18;8.43;;;5.03;;
80623;SDS011;70269;44.768;9.600;2023-09-30T02:22:51;9.93;;;5.70;;
80623;SDS011;70269;44.768;9.600;2023-09-30T02:25:17;10.52;;;5.57;;
80623;SDS011;70269;44.768;9.600;2023-09-30T02:27:43;9.63;;;6.13;;
80623;SDS011;70269;44.768;9.600;2023-09-30T02:30:10;9.30;;;5.18;;
80623;SDS011;70269;44.768;9.600;2023-09-30T02:32:37;10.73;;;5.43;;
80623;SDS011;70269;44.768;9.600;2023-09-30T02:35:04;8.93;;;5.30;;
80623;SDS011;70269;44.768;9.600;2023-09-30T02:37:31;9.90;;;5.13;;
80623;SDS011;70269;44.768;9.600;2023-09-30T02:40:03;10.85;;;5.80;;
80623;SDS011;70269;44.768;9.600;2023-09-30T02:42:35;8.70;;;5.57;;
80623;SDS011;70269;44.768;9.600;2023-09-30T02:45:02;10.15;;;5.80;;
80623;SDS011;70269;44.768;9.600;2023-09-30T02:47:28;11.77;;;5.22;;
80623;SDS011;70269;44.768;9.600;2023-09-30T02:49:55;8.23;;;4.85;;
80623;SDS011;70269;44.768;9.600;2023-09-30T02:52:23;9.00;;;5.55;;
80623;SDS011;70269;44.768;9.600;2023-09-30T02:54:49;9.50;;;5.60;;
80623;SDS011;70269;44.768;9.600;2023-09-30T02:57:15;8.02;;;5.07;;
80623;SDS011;70269;44.768;9.600;2023-09-30T02:59:41;8.95;;;4.82;;
80623;SDS011;70269;44.768;9.600;2023-09-30T03:02:07;9.05;;;5.10;;
80623;SDS011;70269;44.768;9.600;2023-09-30T03:04:33;10.05;;;5.97;;
80623;SDS011;70269;44.768;9.600;2023-09-30T03:06:59;8.35;;;5.43;;
80623;SDS011;70269;44.768;9.600;2023-09-30T03:09:25;8.85;;;5.50;;
80623;SDS011;70269;44.768;9.600;2023-09-30T03:11:51;9.43;;;5.28;;
80623;SDS011;70269;44.768;9.600;2023-09-30T03:14:17;9.30;;;5.75;;
80623;SDS011;70269;44.768;9.600;2023-09-30T03:16:43;8.30;;;4.65;;
80623;SDS011;70269;44.768;9.600;2023-09-30T03:19:09;9.05;;;5.35;;
80623;SDS011;70269;44.768;9.600;2023-09-30T03:21:36;9.23;;;5.38;;
80623;SDS011;70269;44.768;9.600;2023-09-30T03:24:03;10.65;;;5.85;;
80623;SDS011;70269;44.768;9.600;2023-09-30T03:26:29;8.75;;;5.47;;
80623;SDS011;70269;44.768;9.600;2023-09-30T03:28:56;10.25;;;5.65;;
80623;SDS011;70269;44.768;9.600;2023-09-30T03:31:21;9.70;;;5.72;;
80623;SDS011;70269;44.768;9.600;2023-09-30T03:33:50;10.38;;;5.30;;
80623;SDS011;70269;44.768;9.600;2023-09-30T03:36:22;10.23;;;5.25;;
80623;SDS011;70269;44.768;9.600;2023-09-30T03:38:50;9.70;;;5.05;;
80623;SDS011;70269;44.768;9.600;2023-09-30T03:41:20;8.32;;;4.97;;
80623;SDS011;70269;44.768;9.600;2023-09-30T03:43:46;9.90;;;5.78;;
80623;SDS011;70269;44.768;9.600;2023-09-30T03:46:13;9.13;;;6.07;;
80623;SDS011;70269;44.768;9.600;2023-09-30T03:48:38;8.60;;;5.38;;
80623;SDS011;70269;44.768;9.600;2023-09-30T03:53:43;11.55;;;5.05;;
80623;SDS011;70269;44.768;9.600;2023-09-30T03:56:10;9.70;;;4.95;;
80623;SDS011;70269;44.768;9.600;2023-09-30T03:58:40;9.93;;;4.97;;
80623;SDS011;70269;44.768;9.600;2023-09-30T04:01:07;8.65;;;5.18;;
80623;SDS011;70269;44.768;9.600;2023-09-30T04:03:36;8.77;;;5.05;;
80623;SDS011;70269;44.768;9.600;2023-09-30T04:06:04;7.15;;;4.93;;
80623;SDS011;70269;44.768;9.600;2023-09-30T04:08:32;10.40;;;5.53;;
80623;SDS011;70269;44.768;9.600;2023-09-30T04:10:59;10.55;;;5.18;;
80623;SDS011;70269;44.768;9.600;2023-09-30T04:13:26;8.82;;;5.55;;
80623;SDS011;70269;44.768;9.600;2023-09-30T04:15:52;9.15;;;4.85;;
80623;SDS011;70269;44.768;9.600;2023-09-30T04:18:19;8.48;;;5.63;;
80623;SDS011;70269;44.768;9.600;2023-09-30T04:20:47;9.25;;;5.53;;
80623;SDS011;70269;44.768;9.600;2023-09-30T04:23:13;10.07;;;5.25;;
80623;SDS011;70269;44.768;9.600;2023-09-30T04:25:40;9.60;;;5.03;;
80623;SDS011;70269;44.768;9.600;2023-09-30T04:28:06;8.25;;;5.05;;
80623;SDS011;70269;44.768;9.600;2023-09-30T04:30:33;9.32;;;5.50;;
80623;SDS011;70269;44.768;9.600;2023-09-30T04:32:59;9.68;;;6.25;;
80623;SDS011;70269;44.768;9.600;2023-09-30T04:35:26;8.80;;;5.30;;
80623;SDS011;70269;44.768;9.600;2023-09-30T04:37:51;8.52;;;4.72;;
80623;SDS011;70269;44.768;9.600;2023-09-30T04:40:17;9.95;;;5.90;;
80623;SDS011;70269;44.768;9.600;2023-09-30T04:42:45;11.75;;;5.35;;
80623;SDS011;70269;44.768;9.600;2023-09-30T04:45:14;10.32;;;5.68;;
80623;SDS011;70269;44.768;9.600;2023-09-30T04:47:42;12.27;;;5.40;;
80623;SDS011;70269;44.768;9.600;2023-09-30T04:50:10;10.27;;;5.93;;
80623;SDS011;70269;44.768;9.600;2023-09-30T04:52:36;9.05;;;5.20;;
80623;SDS011;70269;44.768;9.600;2023-09-30T04:55:03;12.85;;;5.78;;
80623;SDS011;70269;44.768;9.600;2023-09-30T04:57:30;7.88;;;4.72;;
80623;SDS011;70269;44.768;9.600;2023-09-30T04:59:56;9.60;;;4.72;;
80623;SDS011;70269;44.768;9.600;2023-09-30T05:02:23;10.05;;;5.63;;
80623;SDS011;70269;44.768;9.600;2023-09-30T05:04:49;8.38;;;4.70;;
80623;SDS011;70269;44.768;9.600;2023-09-30T05:07:15;10.02;;;5.35;;
80623;SDS011;70269;44.768;9.600;2023-09-30T05:09:41;8.13;;;5.03;;
80623;SDS011;70269;44.768;9.600;2023-09-30T05:12:07;8.57;;;5.18;;
80623;SDS011;70269;44.768;9.600;2023-09-30T05:14:33;10.18;;;5.43;;
80623;SDS011;70269;44.768;9.600;2023-09-30T05:17:00;8.48;;;5.65;;
80623;SDS011;70269;44.768;9.600;2023-09-30T05:19:26;10.38;;;5.05;;
80623;SDS011;70269;44.768;9.600;2023-09-30T05:21:51;9.77;;;5.50;;
80623;SDS011;70269;44.768;9.600;2023-09-30T05:24:17;9.18;;;4.88;;
80623;SDS011;70269;44.768;9.600;2023-09-30T05:26:46;9.02;;;5.10;;
80623;SDS011;70269;44.768;9.600;2023-09-30T05:29:11;12.50;;;5.82;;
80623;SDS011;70269;44.768;9.600;2023-09-30T05:31:37;8.30;;;5.35;;
80623;SDS011;70269;44.768;9.600;2023-09-30T05:34:03;10.88;;;6.07;;
80623;SDS011;70269;44.768;9.600;2023-09-30T05:36:29;9.70;;;5.38;;
80623;SDS011;70269;44.768;9.600;2023-09-30T05:38:55;11.02;;;5.65;;
80623;SDS011;70269;44.768;9.600;2023-09-30T05:41:21;8.90;;;5.65;;
80623;SDS011;70269;44.768;9.600;2023-09-30T05:43:47;8.90;;;5.32;;
80623;SDS011;70269;44.768;9.600;2023-09-30T05:46:14;9.23;;;5.40;;
80623;SDS011;70269;44.768;9.600;2023-09-30T05:48:40;9.02;;;5.38;;
80623;SDS011;70269;44.768;9.600;2023-09-30T05:51:07;8.43;;;5.05;;
80623;SDS011;70269;44.768;9.600;2023-09-30T05:53:33;7.47;;;4.88;;
80623;SDS011;70269;44.768;9.600;2023-09-30T05:55:59;8.77;;;4.93;;
80623;SDS011;70269;44.768;9.600;2023-09-30T05:58:25;7.22;;;4.45;;
80623;SDS011;70269;44.768;9.600;2023-09-30T06:00:54;9.55;;;5.07;;
80623;SDS011;70269;44.768;9.600;2023-09-30T06:03:20;9.73;;;4.97;;
80623;SDS011;70269;44.768;9.600;2023-09-30T06:05:48;9.50;;;5.05;;
80623;SDS011;70269;44.768;9.600;2023-09-30T06:08:15;7.63;;;4.70;;
80623;SDS011;70269;44.768;9.600;2023-09-30T06:10:43;8.15;;;5.05;;
80623;SDS011;70269;44.768;9.600;2023-09-30T06:13:09;7.75;;;4.63;;
80623;SDS011;70269;44.768;9.600;2023-09-30T06:15:39;9.02;;;5.03;;
80623;SDS011;70269;44.768;9.600;2023-09-30T06:18:06;7.28;;;4.35;;
80623;SDS011;70269;44.768;9.600;2023-09-30T06:20:32;8.10;;;4.90;;
80623;SDS011;70269;44.768;9.600;2023-09-30T06:22:58;8.90;;;4.53;;
80623;SDS011;70269;44.768;9.600;2023-09-30T06:25:25;7.60;;;4.75;;
80623;SDS011;70269;44.768;9.600;2023-09-30T06:27:54;7.35;;;4.30;;
80623;SDS011;70269;44.768;9.600;2023-09-30T06:30:20;11.07;;;4.20;;
80623;SDS011;70269;44.768;9.600;2023-09-30T06:32:46;6.65;;;4.15;;
80623;SDS011;70269;44.768;9.600;2023-09-30T06:35:12;7.20;;;4.38;;
80623;SDS011;70269;44.768;9.600;2023-09-30T06:37:38;9.10;;;3.97;;
80623;SDS011;70269;44.768;9.600;2023-09-30T06:40:05;6.05;;;3.70;;
80623;SDS011;70269;44.768;9.600;2023-09-30T06:42:33;11.60;;;4.65;;
80623;SDS011;70269;44.768;9.600;2023-09-30T06:45:00;6.03;;;4.30;;
80623;SDS011;70269;44.768;9.600;2023-09-30T06:47:31;8.85;;;4.28;;
80623;SDS011;70269;44.768;9.600;2023-09-30T06:49:59;7.72;;;4.18;;
80623;SDS011;70269;44.768;9.600;2023-09-30T06:52:32;8.43;;;5.18;;
80623;SDS011;70269;44.768;9.600;2023-09-30T06:55:02;6.30;;;3.83;;
80623;SDS011;70269;44.768;9.600;2023-09-30T06:57:36;7.45;;;3.97;;
80623;SDS011;70269;44.768;9.600;2023-09-30T07:00:06;10.75;;;3.78;;
80623;SDS011;70269;44.768;9.600;2023-09-30T07:02:37;9.18;;;4.00;;
80623;SDS011;70269;44.768;9.600;2023-09-30T07:05:10;9.43;;;4.43;;
80623;SDS011;70269;44.768;9.600;2023-09-30T07:07:36;8.68;;;3.97;;
80623;SDS011;70269;44.768;9.600;2023-09-30T07:10:02;7.53;;;4.43;;
80623;SDS011;70269;44.768;9.600;2023-09-30T07:12:32;10.02;;;4.78;;
80623;SDS011;70269;44.768;9.600;2023-09-30T07:15:00;11.18;;;4.45;;
80623;SDS011;70269;44.768;9.600;2023-09-30T07:17:30;8.65;;;4.53;;
80623;SDS011;70269;44.768;9.600;2023-09-30T07:19:56;8.60;;;5.00;;
80623;SDS011;70269;44.768;9.600;2023-09-30T07:22:22;9.10;;;4.40;;
80623;SDS011;70269;44.768;9.600;2023-09-30T07:24:48;9.45;;;4.93;;
80623;SDS011;70269;44.768;9.600;2023-09-30T07:27:13;7.57;;;4.38;;
80623;SDS011;70269;44.768;9.600;2023-09-30T07:29:39;7.80;;;4.30;;
80623;SDS011;70269;44.768;9.600;2023-09-30T07:32:06;7.07;;;4.70;;
80623;SDS011;70269;44.768;9.600;2023-09-30T07:34:32;9.90;;;4.35;;
80623;SDS011;70269;44.768;9.600;2023-09-30T07:36:58;8.50;;;4.20;;
80623;SDS011;70269;44.768;9.600;2023-09-30T07:39:23;7.95;;;4.78;;
80623;SDS011;70269;44.768;9.600;2023-09-30T07:41:49;6.80;;;3.97;;
80623;SDS011;70269;44.768;9.600;2023-09-30T07:44:14;7.32;;;4.20;;
80623;SDS011;70269;44.768;9.600;2023-09-30T07:46:40;9.30;;;4.50;;
80623;SDS011;70269;44.768;9.600;2023-09-30T07:49:07;8.23;;;4.90;;
80623;SDS011;70269;44.768;9.600;2023-09-30T07:51:33;9.10;;;5.13;;
80623;SDS011;70269;44.768;9.600;2023-09-30T07:54:00;9.00;;;4.75;;
80623;SDS011;70269;44.768;9.600;2023-09-30T07:56:26;6.28;;;3.55;;
80623;SDS011;70269;44.768;9.600;2023-09-30T07:58:51;9.43;;;5.10;;
80623;SDS011;70269;44.768;9.600;2023-09-30T08:01:18;8.57;;;4.80;;
80623;SDS011;70269;44.768;9.600;2023-09-30T08:03:44;7.82;;;4.72;;
80623;SDS011;70269;44.768;9.600;2023-09-30T08:06:10;6.25;;;4.55;;
80623;SDS011;70269;44.768;9.600;2023-09-30T08:08:36;6.93;;;4.53;;
80623;SDS011;70269;44.768;9.600;2023-09-30T08:11:01;7.55;;;5.13;;
80623;SDS011;70269;44.768;9.600;2023-09-30T08:13:27;8.13;;;4.20;;
80623;SDS011;70269;44.768;9.600;2023-09-30T08:15:54;9.18;;;4.07;;
80623;SDS011;70269;44.768;9.600;2023-09-30T08:18:20;7.35;;;3.70;;
80623;SDS011;70269;44.768;9.600;2023-09-30T08:20:46;6.95;;;4.18;;
80623;SDS011;70269;44.768;9.600;2023-09-30T08:23:12;7.00;;;3.90;;
80623;SDS011;70269;44.768;9.600;2023-09-30T08:25:38;7.90;;;3.95;;
80623;SDS011;70269;44.768;9.600;2023-09-30T08:28:04;6.28;;;4.07;;
80623;SDS011;70269;44.768;9.600;2023-09-30T08:30:30;6.75;;;3.95;;
80623;SDS011;70269;44.768;9.600;2023-09-30T08:32:56;8.95;;;4.07;;
80623;SDS011;70269;44.768;9.600;2023-09-30T08:35:21;8.70;;;3.75;;
80623;SDS011;70269;44.768;9.600;2023-09-30T08:37:47;6.55;;;3.80;;
80623;SDS011;70269;44.768;9.600;2023-09-30T08:40:12;9.10;;;3.92;;
80623;SDS011;70269;44.768;9.600;2023-09-30T08:42:38;6.78;;;3.85;;
80623;SDS011;70269;44.768;9.600;2023-09-30T08:45:04;7.47;;;3.40;;
80623;SDS011;70269;44.768;9.600;2023-09-30T08:47:33;9.65;;;3.28;;
80623;SDS011;70269;44.768;9.600;2023-09-30T08:50:00;7.55;;;4.10;;
80623;SDS011;70269;44.768;9.600;2023-09-30T08:52:34;5.63;;;3.50;;
80623;SDS011;70269;44.768;9.600;2023-09-30T08:55:00;6.57;;;3.10;;
80623;SDS011;70269;44.768;9.600;2023-09-30T08:57:26;8.38;;;2.90;;
80623;SDS011;70269;44.768;9.600;2023-09-30T08:59:53;7.32;;;3.47;;
80623;SDS011;70269;44.768;9.600;2023-09-30T09:02:19;7.03;;;3.35;;
80623;SDS011;70269;44.768;9.600;2023-09-30T09:04:47;6.90;;;3.58;;
80623;SDS011;70269;44.768;9.600;2023-09-30T09:07:14;5.63;;;2.72;;
80623;SDS011;70269;44.768;9.600;2023-09-30T09:09:40;6.53;;;3.20;;
80623;SDS011;70269;44.768;9.600;2023-09-30T09:12:06;8.05;;;3.55;;
80623;SDS011;70269;44.768;9.600;2023-09-30T09:14:43;6.70;;;3.80;;
80623;SDS011;70269;44.768;9.600;2023-09-30T09:17:10;6.43;;;3.42;;
80623;SDS011;70269;44.768;9.600;2023-09-30T09:19:36;5.38;;;3.08;;
80623;SDS011;70269;44.768;9.600;2023-09-30T09:22:02;7.55;;;3.67;;
80623;SDS011;70269;44.768;9.600;2023-09-30T09:24:32;6.05;;;3.40;;
80623;SDS011;70269;44.768;9.600;2023-09-30T09:27:06;7.30;;;4.15;;
80623;SDS011;70269;44.768;9.600;2023-09-30T09:29:35;6.60;;;3.63;;
80623;SDS011;70269;44.768;9.600;2023-09-30T09:32:08;7.32;;;4.20;;
80623;SDS011;70269;44.768;9.600;2023-09-30T09:34:35;7.22;;;3.80;;
80623;SDS011;70269;44.768;9.600;2023-09-30T09:37:12;8.88;;;3.85;;
80623;SDS011;70269;44.768;9.600;2023-09-30T09:39:51;7.95;;;4.28;;
80623;SDS011;70269;44.768;9.600;2023-09-30T09:42:28;7.68;;;4.13;;
80623;SDS011;70269;44.768;9.600;2023-09-30T09:44:56;7.53;;;4.13;;
80623;SDS011;70269;44.768;9.600;2023-09-30T09:47:25;6.85;;;4.03;;
80623;SDS011;70269;44.768;9.600;2023-09-30T09:49:52;7.35;;;3.83;;
80623;SDS011;70269;44.768;9.600;2023-09-30T09:52:18;8.18;;;4.20;;
80623;SDS011;70269;44.768;9.600;2023-09-30T09:54:45;8.85;;;3.97;;
80623;SDS011;70269;44.768;9.600;2023-09-30T09:57:14;7.07;;;4.15;;
80623;SDS011;70269;44.768;9.600;2023-09-30T09:59:43;8.82;;;3.97;;
80623;SDS011;70269;44.768;9.600;2023-09-30T10:02:12;8.60;;;3.90;;
80623;SDS011;70269;44.768;9.600;2023-09-30T10:04:46;8.70;;;3.85;;
80623;SDS011;70269;44.768;9.600;2023-09-30T10:07:22;7.07;;;4.20;;
80623;SDS011;70269;44.768;9.600;2023-09-30T10:09:52;7.35;;;3.33;;
80623;SDS011;70269;44.768;9.600;2023-09-30T10:12:20;10.18;;;4.85;;
80623;SDS011;70269;44.768;9.600;2023-09-30T10:14:46;7.75;;;4.22;;
80623;SDS011;70269;44.768;9.600;2023-09-30T10:17:12;9.90;;;4.40;;
80623;SDS011;70269;44.768;9.600;2023-09-30T10:20:02;11.15;;;4.10;;
80623;SDS011;70269;44.768;9.600;2023-09-30T10:22:33;9.65;;;3.90;;
80623;SDS011;70269;44.768;9.600;2023-09-30T10:24:59;8.50;;;3.92;;
80623;SDS011;70269;44.768;9.600;2023-09-30T10:29:54;6.68;;;3.65;;
80623;SDS011;70269;44.768;9.600;2023-09-30T10:37:45;6.55;;;3.92;;
80623;SDS011;70269;44.768;9.600;2023-09-30T10:40:27;6.45;;;3.70;;
80623;SDS011;70269;44.768;9.600;2023-09-30T10:42:54;6.57;;;4.00;;
80623;SDS011;70269;44.768;9.600;2023-09-30T10:50:52;8.90;;;3.55;;
80623;SDS011;70269;44.768;9.600;2023-09-30T10:53:20;10.05;;;4.82;;
80623;SDS011;70269;44.768;9.600;2023-09-30T10:55:46;11.02;;;4.95;;
80623;SDS011;70269;44.768;9.600;2023-09-30T10:58:20;6.20;;;4.18;;
80623;SDS011;70269;44.768;9.600;2023-09-30T11:00:55;6.63;;;4.78;;
80623;SDS011;70269;44.768;9.600;2023-09-30T11:03:21;10.70;;;5.18;;
80623;SDS011;70269;44.768;9.600;2023-09-30T11:05:50;7.60;;;4.20;;
80623;SDS011;70269;44.768;9.600;2023-09-30T11:08:18;7.00;;;4.38;;
80623;SDS011;70269;44.768;9.600;2023-09-30T11:10:51;8.18;;;5.25;;
80623;SDS011;70269;44.768;9.600;2023-09-30T11:13:18;10.05;;;4.80;;
80623;SDS011;70269;44.768;9.600;2023-09-30T11:15:44;11.25;;;5.75;;
80623;SDS011;70269;44.768;9.600;2023-09-30T11:18:14;10.93;;;5.18;;
80623;SDS011;70269;44.768;9.600;2023-09-30T11:20:41;9.70;;;6.78;;
80623;SDS011;70269;44.768;9.600;2023-09-30T11:23:07;8.82;;;4.35;;
80623;SDS011;70269;44.768;9.600;2023-09-30T11:25:37;7.90;;;4.07;;
80623;SDS011;70269;44.768;9.600;2023-09-30T11:28:17;7.70;;;4.28;;
80623;SDS011;70269;44.768;9.600;2023-09-30T11:30:54;8.85;;;3.92;;
80623;SDS011;70269;44.768;9.600;2023-09-30T11:33:24;6.65;;;3.92;;
80623;SDS011;70269;44.768;9.600;2023-09-30T11:38:32;10.65;;;5.68;;
80623;SDS011;70269;44.768;9.600;2023-09-30T11:43:29;7.93;;;4.85;;
80623;SDS011;70269;44.768;9.600;2023-09-30T11:48:37;7.40;;;4.20;;
80623;SDS011;70269;44.768;9.600;2023-09-30T11:51:04;8.70;;;4.57;;
80623;SDS011;70269;44.768;9.600;2023-09-30T11:53:30;10.32;;;4.63;;
80623;SDS011;70269;44.768;9.600;2023-09-30T11:55:57;7.15;;;4.10;;
80623;SDS011;70269;44.768;9.600;2023-09-30T11:58:25;10.82;;;4.68;;
80623;SDS011;70269;44.768;9.600;2023-09-30T12:00:54;9.13;;;4.43;;
80623;SDS011;70269;44.768;9.600;2023-09-30T12:03:22;8.20;;;4.13;;
80623;SDS011;70269;44.768;9.600;2023-09-30T12:05:48;7.03;;;4.53;;
80623;SDS011;70269;44.768;9.600;2023-09-30T12:08:14;7.90;;;4.05;;
80623;SDS011;70269;44.768;9.600;2023-09-30T12:10:40;9.00;;;5.00;;
80623;SDS011;70269;44.768;9.600;2023-09-30T12:13:06;8.40;;;4.18;;
80623;SDS011;70269;44.768;9.600;2023-09-30T12:15:31;7.20;;;4.40;;
80623;SDS011;70269;44.768;9.600;2023-09-30T12:17:57;7.18;;;3.95;;
80623;SDS011;70269;44.768;9.600;2023-09-30T12:20:22;7.95;;;4.80;;
80623;SDS011;70269;44.768;9.600;2023-09-30T12:22:48;8.30;;;4.50;;
80623;SDS011;70269;44.768;9.600;2023-09-30T12:25:14;6.82;;;4.38;;
80623;SDS011;70269;44.768;9.600;2023-09-30T12:27:40;6.50;;;4.05;;
80623;SDS011;70269;44.768;9.600;2023-09-30T12:30:06;7.45;;;4.63;;
80623;SDS011;70269;44.768;9.600;2023-09-30T12:32:32;6.03;;;4.28;;
80623;SDS011;70269;44.768;9.600;2023-09-30T12:34:58;10.50;;;4.38;;
80623;SDS011;70269;44.768;9.600;2023-09-30T12:37:23;7.88;;;4.45;;
80623;SDS011;70269;44.768;9.600;2023-09-30T12:39:48;8.13;;;4.18;;
80623;SDS011;70269;44.768;9.600;2023-09-30T12:42:14;7.18;;;4.55;;
80623;SDS011;70269;44.768;9.600;2023-09-30T12:44:41;7.40;;;4.45;;
80623;SDS011;70269;44.768;9.600;2023-09-30T12:47:06;10.68;;;4.85;;
80623;SDS011;70269;44.768;9.600;2023-09-30T12:49:32;7.50;;;4.28;;
80623;SDS011;70269;44.768;9.600;2023-09-30T12:51:57;10.77;;;4.53;;
80623;SDS011;70269;44.768;9.600;2023-09-30T12:54:26;7.63;;;4.15;;
80623;SDS011;70269;44.768;9.600;2023-09-30T12:56:52;9.32;;;4.55;;
80623;SDS011;70269;44.768;9.600;2023-09-30T12:59:17;9.18;;;4.40;;
80623;SDS011;70269;44.768;9.600;2023-09-30T13:01:45;7.05;;;4.47;;
80623;SDS011;70269;44.768;9.600;2023-09-30T13:04:11;10.10;;;4.30;;
80623;SDS011;70269;44.768;9.600;2023-09-30T13:06:37;8.63;;;4.93;;
80623;SDS011;70269;44.768;9.600;2023-09-30T13:09:02;7.57;;;4.03;;
80623;SDS011;70269;44.768;9.600;2023-09-30T13:11:30;10.45;;;4.80;;
80623;SDS011;70269;44.768;9.600;2023-09-30T13:13:55;8.40;;;4.20;;
80623;SDS011;70269;44.768;9.600;2023-09-30T13:16:21;7.80;;;4.30;;
80623;SDS011;70269;44.768;9.600;2023-09-30T13:18:47;10.80;;;4.80;;
80623;SDS011;70269;44.768;9.600;2023-09-30T13:21:13;8.52;;;4.35;;
80623;SDS011;70269;44.768;9.600;2023-09-30T13:23:38;13.90;;;4.72;;
80623;SDS011;70269;44.768;9.600;2023-09-30T13:26:04;12.05;;;5.03;;
80623;SDS011;70269;44.768;9.600;2023-09-30T13:28:30;10.98;;;4.95;;
80623;SDS011;70269;44.768;9.600;2023-09-30T13:30:55;11.07;;;5.53;;
80623;SDS011;70269;44.768;9.600;2023-09-30T13:33:21;7.40;;;4.60;;
80623;SDS011;70269;44.768;9.600;2023-09-30T13:35:47;7.90;;;4.38;;
80623;SDS011;70269;44.768;9.600;2023-09-30T13:38:12;8.38;;;4.85;;
80623;SDS011;70269;44.768;9.600;2023-09-30T13:40:39;7.45;;;4.25;;
80623;SDS011;70269;44.768;9.600;2023-09-30T13:43:05;7.15;;;4.10;;
80623;SDS011;70269;44.768;9.600;2023-09-30T13:45:30;11.20;;;4.80;;
80623;SDS011;70269;44.768;9.600;2023-09-30T13:47:56;9.35;;;4.88;;
80623;SDS011;70269;44.768;9.600;2023-09-30T13:50:21;10.40;;;4.70;;
80623;SDS011;70269;44.768;9.600;2023-09-30T13:52:47;11.02;;;5.25;;
80623;SDS011;70269;44.768;9.600;2023-09-30T13:55:12;9.88;;;4.80;;
80623;SDS011;70269;44.768;9.600;2023-09-30T13:57:47;8.50;;;4.35;;
80623;SDS011;70269;44.768;9.600;2023-09-30T14:00:13;9.70;;;4.88;;
80623;SDS011;70269;44.768;9.600;2023-09-30T14:02:40;9.60;;;4.75;;
80623;SDS011;70269;44.768;9.600;2023-09-30T14:05:05;8.75;;;4.95;;
80623;SDS011;70269;44.768;9.600;2023-09-30T14:07:35;12.60;;;4.82;;
80623;SDS011;70269;44.768;9.600;2023-09-30T14:10:05;9.68;;;4.90;;
80623;SDS011;70269;44.768;9.600;2023-09-30T14:12:32;7.63;;;4.70;;
80623;SDS011;70269;44.768;9.600;2023-09-30T14:14:57;7.63;;;4.63;;
80623;SDS011;70269;44.768;9.600;2023-09-30T14:17:23;10.70;;;5.22;;
80623;SDS011;70269;44.768;9.600;2023-09-30T14:19:48;12.07;;;4.63;;
80623;SDS011;70269;44.768;9.600;2023-09-30T14:22:14;8.88;;;4.60;;
80623;SDS011;70269;44.768;9.600;2023-09-30T14:24:40;7.43;;;4.60;;
80623;SDS011;70269;44.768;9.600;2023-09-30T14:27:05;8.05;;;4.78;;
80623;SDS011;70269;44.768;9.600;2023-09-30T14:29:32;7.32;;;4.28;;
80623;SDS011;70269;44.768;9.600;2023-09-30T14:31:58;7.78;;;4.50;;
80623;SDS011;70269;44.768;9.600;2023-09-30T14:34:24;12.45;;;6.03;;
80623;SDS011;70269;44.768;9.600;2023-09-30T14:36:50;16.48;;;9.93;;
80623;SDS011;70269;44.768;9.600;2023-09-30T14:39:16;16.10;;;14.40;;
80623;SDS011;70269;44.768;9.600;2023-09-30T14:41:42;11.68;;;5.18;;
80623;SDS011;70269;44.768;9.600;2023-09-30T14:44:08;7.53;;;5.30;;
80623;SDS011;70269;44.768;9.600;2023-09-30T14:46:37;8.23;;;4.57;;
80623;SDS011;70269;44.768;9.600;2023-09-30T14:49:03;6.63;;;4.72;;
80623;SDS011;70269;44.768;9.600;2023-09-30T14:53:56;10.57;;;5.78;;
80623;SDS011;70269;44.768;9.600;2023-09-30T14:56:22;9.32;;;5.38;;
80623;SDS011;70269;44.768;9.600;2023-09-30T14:58:47;13.18;;;6.78;;
80623;SDS011;70269;44.768;9.600;2023-09-30T15:01:13;9.98;;;7.50;;
80623;SDS011;70269;44.768;9.600;2023-09-30T15:03:38;10.35;;;5.68;;
80623;SDS011;70269;44.768;9.600;2023-09-30T15:06:04;8.73;;;5.15;;
80623;SDS011;70269;44.768;9.600;2023-09-30T15:08:31;8.63;;;4.55;;
80623;SDS011;70269;44.768;9.600;2023-09-30T15:11:00;9.45;;;5.82;;